Terminal Aerodrome Forecast
Issued by NWS Albuquerque, NM

Home | Current Version | Previous Version | Text Only | Print | Product List | Glossary On
Versions: 1 2 3 4 5 6 7 8 9 10 11 12 13
000
FTUS45 KABQ 010500
TAFABQ
TAF
KABQ 010520Z 0106/0206 34005KT P6SM SKC
     FM010900 01008KT P6SM SKC
     FM011800 22006KT P6SM SCT150
     FM012100 28011G18KT P6SM SCT120=

USA.gov is the U.S. government's official web portal to all federal, state and local government web resources and services.